createdAt,value
2022-08-11T00:00:21.526Z,0.00
2022-08-11T00:01:21.516Z,0.00
2022-08-11T00:02:21.540Z,0.00
2022-08-11T00:03:21.541Z,0.00
2022-08-11T00:04:21.486Z,0.00
2022-08-11T00:05:21.524Z,0.00
2022-08-11T00:06:21.469Z,0.00
2022-08-11T00:07:21.460Z,0.00
2022-08-11T00:08:21.450Z,0.00
2022-08-11T00:09:21.455Z,0.00
2022-08-11T00:10:21.434Z,0.00
2022-08-11T00:11:21.449Z,0.00
2022-08-11T00:12:21.401Z,0.00
2022-08-11T00:13:21.390Z,0.00
2022-08-11T00:14:21.381Z,0.00
2022-08-11T00:15:21.370Z,0.00
2022-08-11T00:16:21.361Z,0.00
2022-08-11T00:17:21.392Z,0.00
2022-08-11T00:18:21.333Z,0.00
2022-08-11T00:20:14.101Z,0.00
2022-08-11T00:20:22.313Z,0.00
2022-08-11T00:22:01.850Z,0.00
2022-08-11T00:22:22.336Z,0.00
2022-08-11T00:23:21.283Z,0.00
2022-08-11T00:24:21.274Z,0.00
2022-08-11T00:25:21.271Z,0.00
2022-08-11T00:26:21.256Z,0.00
2022-08-11T00:27:21.246Z,0.00
2022-08-11T00:28:21.265Z,0.00
2022-08-11T00:29:21.227Z,0.00
2022-08-11T00:30:21.205Z,0.00
2022-08-11T00:31:21.209Z,0.00
2022-08-11T00:32:21.186Z,0.00
2022-08-11T00:33:21.177Z,0.00
2022-08-11T00:34:22.208Z,0.00
2022-08-11T00:35:55.833Z,0.00
2022-08-11T00:36:25.483Z,0.00
2022-08-11T00:37:21.138Z,0.00
2022-08-11T00:38:21.129Z,0.00
2022-08-11T00:39:21.155Z,0.00
2022-08-11T00:40:22.139Z,0.00
2022-08-11T00:41:21.100Z,0.00
2022-08-11T00:42:21.086Z,0.00
2022-08-11T00:43:21.275Z,0.00
2022-08-11T00:44:21.064Z,0.00
2022-08-11T00:45:21.050Z,0.00
2022-08-11T00:46:21.083Z,0.00
2022-08-11T00:47:21.031Z,0.00
2022-08-11T00:48:21.022Z,0.00
2022-08-11T00:49:21.012Z,0.00
2022-08-11T00:50:21.002Z,0.00
2022-08-11T00:51:20.992Z,0.00
2022-08-11T00:52:21.012Z,0.00
2022-08-11T00:53:20.974Z,0.00
2022-08-11T00:54:20.954Z,0.00
2022-08-11T00:55:20.954Z,0.00
2022-08-11T00:56:20.935Z,0.00
2022-08-11T00:57:37.531Z,0.00
2022-08-11T00:58:22.690Z,0.00
2022-08-11T00:59:35.356Z,0.00
2022-08-11T01:00:21.886Z,0.00
2022-08-11T01:01:21.012Z,0.00
2022-08-11T01:02:20.876Z,0.00
2022-08-11T01:03:20.866Z,0.00
2022-08-11T01:04:20.896Z,0.00
2022-08-11T01:05:20.846Z,0.00
2022-08-11T01:06:20.827Z,0.00
2022-08-11T01:08:01.045Z,0.00
2022-08-11T01:08:21.808Z,0.00
2022-08-11T01:09:22.795Z,0.00
2022-08-11T01:10:20.839Z,0.00
2022-08-11T01:11:20.780Z,0.00
2022-08-11T01:12:20.770Z,0.00
2022-08-11T01:13:20.768Z,0.00
2022-08-11T01:14:34.038Z,0.00
2022-08-11T01:15:21.773Z,0.00
2022-08-11T01:16:20.720Z,0.00
2022-08-11T01:17:20.723Z,0.00
2022-08-11T01:18:20.703Z,0.00
2022-08-11T01:19:20.703Z,0.00
2022-08-11T01:20:46.150Z,0.00
2022-08-11T01:21:21.711Z,0.00
2022-08-11T01:22:20.661Z,0.00
2022-08-11T01:23:20.653Z,0.00
2022-08-11T01:24:20.652Z,0.00
2022-08-11T01:25:20.634Z,0.00
2022-08-11T01:26:20.625Z,0.00
2022-08-11T01:27:20.678Z,0.00
2022-08-11T01:28:20.595Z,0.00
2022-08-11T01:29:20.596Z,0.00
2022-08-11T01:30:20.575Z,0.00
2022-08-11T01:31:23.391Z,0.00
2022-08-11T01:32:20.558Z,0.00
2022-08-11T01:33:20.596Z,0.00
2022-08-11T01:34:20.536Z,0.00
2022-08-11T01:35:20.527Z,0.00
2022-08-11T01:36:20.519Z,0.00
2022-08-11T01:37:20.508Z,0.00
2022-08-11T01:38:20.498Z,0.00
2022-08-11T01:39:20.642Z,0.00
2022-08-11T01:40:20.478Z,0.00
2022-08-11T01:41:20.461Z,0.00
2022-08-11T01:42:20.458Z,0.00
2022-08-11T01:43:20.451Z,0.00
2022-08-11T01:44:20.439Z,0.00
2022-08-11T01:45:20.451Z,0.00
2022-08-11T01:46:20.411Z,0.00
2022-08-11T01:47:20.400Z,0.00
2022-08-11T01:48:20.395Z,0.00
2022-08-11T01:49:29.133Z,0.00
2022-08-11T01:50:21.411Z,0.00
2022-08-11T01:51:20.361Z,0.00
2022-08-11T01:52:20.345Z,0.00
2022-08-11T01:53:21.333Z,0.00
2022-08-11T01:54:20.323Z,0.00
2022-08-11T01:55:20.323Z,0.00
2022-08-11T01:56:20.355Z,0.00
2022-08-11T01:57:20.295Z,0.00
2022-08-11T01:58:20.284Z,0.00
2022-08-11T01:59:21.276Z,0.00
2022-08-11T02:00:20.263Z,0.00
2022-08-11T02:01:20.320Z,0.00
2022-08-11T02:02:21.386Z,0.00
2022-08-11T02:03:20.235Z,0.00
2022-08-11T02:04:20.220Z,0.00
2022-08-11T02:05:20.208Z,0.00
2022-08-11T02:06:20.196Z,0.00
2022-08-11T02:07:20.200Z,0.00
2022-08-11T02:08:20.227Z,0.00
2022-08-11T02:09:21.173Z,0.00
2022-08-11T02:10:20.159Z,0.00
2022-08-11T02:11:20.150Z,0.00
2022-08-11T02:12:20.140Z,0.00
2022-08-11T02:13:35.364Z,0.00
2022-08-11T02:14:21.151Z,0.00
2022-08-11T02:15:20.109Z,0.00
2022-08-11T02:16:20.090Z,0.00
2022-08-11T02:17:20.080Z,0.00
2022-08-11T02:18:20.071Z,0.00
2022-08-11T02:19:20.071Z,0.00
2022-08-11T02:20:20.083Z,0.00
2022-08-11T02:21:20.042Z,0.00
2022-08-11T02:22:20.039Z,0.00
2022-08-11T02:24:00.514Z,0.00
2022-08-11T02:24:21.011Z,0.00
2022-08-11T02:25:20.005Z,0.00
2022-08-11T02:26:20.024Z,0.00
2022-08-11T02:27:19.984Z,0.00
2022-08-11T02:28:19.972Z,0.00
2022-08-11T02:29:19.971Z,0.00
2022-08-11T02:30:19.946Z,0.00
2022-08-11T02:32:24.895Z,0.00
2022-08-11T02:32:28.784Z,0.00
2022-08-11T02:33:20.918Z,0.00
2022-08-11T02:34:19.905Z,0.00
2022-08-11T02:35:19.908Z,0.00
2022-08-11T02:36:19.887Z,0.00
2022-08-11T02:37:23.708Z,0.00
2022-08-11T02:38:19.910Z,0.00
2022-08-11T02:39:19.916Z,0.00
2022-08-11T02:40:19.846Z,0.00
2022-08-11T02:41:19.842Z,0.00
2022-08-11T02:42:31.601Z,0.00
2022-08-11T02:43:20.868Z,0.00
2022-08-11T02:44:19.801Z,0.00
2022-08-11T02:45:19.790Z,0.00
2022-08-11T02:46:19.781Z,0.00
2022-08-11T02:47:19.772Z,0.00
2022-08-11T02:48:19.761Z,0.00
2022-08-11T02:49:19.791Z,0.00
2022-08-11T02:50:19.742Z,0.00
2022-08-11T02:51:22.033Z,1.00
2022-08-11T02:52:19.664Z,1.00
2022-08-11T02:53:19.654Z,1.00
2022-08-11T02:54:19.643Z,1.00
2022-08-11T02:55:44.478Z,1.00
2022-08-11T02:56:20.620Z,1.00
2022-08-11T02:57:19.624Z,1.00
2022-08-11T02:58:19.925Z,1.00
2022-08-11T02:59:20.595Z,2.00
2022-08-11T03:00:19.576Z,2.00
2022-08-11T03:01:19.661Z,3.00
2022-08-11T03:02:19.555Z,3.00
2022-08-11T03:03:19.556Z,3.00
2022-08-11T03:04:19.537Z,3.00
2022-08-11T03:05:19.528Z,4.00
2022-08-11T03:06:19.517Z,4.00
2022-08-11T03:07:28.069Z,5.00
2022-08-11T03:08:20.499Z,4.00
2022-08-11T03:09:19.495Z,4.00
2022-08-11T03:10:19.479Z,5.00
2022-08-11T03:11:19.473Z,5.00
2022-08-11T03:12:19.460Z,5.00
2022-08-11T03:13:19.483Z,6.00
2022-08-11T03:14:19.439Z,6.00
2022-08-11T03:15:19.421Z,7.00
2022-08-11T03:16:19.410Z,7.00
2022-08-11T03:17:19.401Z,7.00
2022-08-11T03:18:19.391Z,8.00
2022-08-11T03:19:19.420Z,8.00
2022-08-11T03:20:19.373Z,8.00
2022-08-11T03:21:19.881Z,9.00
2022-08-11T03:22:19.356Z,9.00
2022-08-11T03:23:20.471Z,9.00
2022-08-11T03:24:19.333Z,10.00
2022-08-11T03:25:19.354Z,11.00
2022-08-11T03:26:19.317Z,11.00
2022-08-11T03:27:19.295Z,12.00
2022-08-11T03:28:19.286Z,13.00
2022-08-11T03:29:24.921Z,15.00
2022-08-11T03:30:20.304Z,15.00
2022-08-11T03:31:19.255Z,15.00
2022-08-11T03:32:19.247Z,15.00
2022-08-11T03:33:19.238Z,16.00
2022-08-11T03:34:19.228Z,17.00
2022-08-11T03:35:21.372Z,19.00
2022-08-11T03:36:19.248Z,20.00
2022-08-11T03:37:19.188Z,20.00
2022-08-11T03:38:19.178Z,20.00
2022-08-11T03:39:19.208Z,21.00
2022-08-11T03:40:19.166Z,23.00
2022-08-11T03:42:03.543Z,27.00
2022-08-11T03:42:20.179Z,25.00
2022-08-11T03:43:19.129Z,27.00
2022-08-11T03:44:19.120Z,31.00
2022-08-11T03:45:19.114Z,29.00
2022-08-11T03:46:19.102Z,30.00
2022-08-11T03:47:19.088Z,32.00
2022-08-11T03:48:19.122Z,30.00
2022-08-11T03:49:19.074Z,30.00
2022-08-11T03:50:19.061Z,27.00
2022-08-11T03:51:19.048Z,27.00
2022-08-11T03:52:19.042Z,26.00
2022-08-11T03:53:19.022Z,27.00
2022-08-11T03:54:19.043Z,28.00
2022-08-11T03:55:19.004Z,31.00
2022-08-11T03:56:18.994Z,34.00
2022-08-11T03:57:18.986Z,38.00
2022-08-11T03:58:18.964Z,43.00
2022-08-11T03:59:18.966Z,42.00
2022-08-11T04:00:18.998Z,43.00
2022-08-11T04:01:18.992Z,46.00
2022-08-11T04:02:18.926Z,45.00
2022-08-11T04:03:18.917Z,43.00
2022-08-11T04:04:18.907Z,47.00
2022-08-11T04:05:18.897Z,53.00
2022-08-11T04:06:18.916Z,52.00
2022-08-11T04:07:18.878Z,50.00
2022-08-11T04:08:18.868Z,55.00
2022-08-11T04:09:18.858Z,56.00
2022-08-11T04:10:18.850Z,50.00
2022-08-11T04:11:18.839Z,45.00
2022-08-11T04:12:35.937Z,39.00
2022-08-11T04:13:19.809Z,33.00
2022-08-11T04:14:18.808Z,32.00
2022-08-11T04:15:18.794Z,26.00
2022-08-11T04:16:18.781Z,23.00
2022-08-11T04:17:18.772Z,25.00
2022-08-11T04:18:18.791Z,32.00
2022-08-11T04:19:18.751Z,39.00
2022-08-11T04:20:18.742Z,47.00
2022-08-11T04:21:18.733Z,53.00
2022-08-11T04:22:18.723Z,57.00
2022-08-11T04:24:37.024Z,66.00
2022-08-11T04:24:37.686Z,92.00
2022-08-11T04:25:19.687Z,110.00
2022-08-11T04:26:19.133Z,94.00
2022-08-11T04:27:19.218Z,75.00
2022-08-11T04:28:28.613Z,71.00
2022-08-11T04:29:19.654Z,76.00
2022-08-11T04:30:18.666Z,88.00
2022-08-11T04:31:51.076Z,89.00
2022-08-11T04:32:19.626Z,81.00
2022-08-11T04:33:18.608Z,87.00
2022-08-11T04:34:18.596Z,82.00
2022-08-11T04:35:18.578Z,78.00
2022-08-11T04:36:18.607Z,77.00
2022-08-11T04:37:18.558Z,68.00
2022-08-11T04:38:18.557Z,60.00
2022-08-11T04:39:18.579Z,58.00
2022-08-11T04:40:18.529Z,58.00
2022-08-11T04:41:18.518Z,58.00
2022-08-11T04:42:18.549Z,65.00
2022-08-11T04:43:18.503Z,75.00
2022-08-11T04:44:18.490Z,81.00
2022-08-11T04:45:18.480Z,84.00
2022-08-11T04:46:18.470Z,87.00
2022-08-11T04:47:18.467Z,94.00
2022-08-11T04:48:18.481Z,96.00
2022-08-11T04:49:25.568Z,85.00
2022-08-11T04:50:19.431Z,91.00
2022-08-11T04:51:18.420Z,95.00
2022-08-11T04:52:18.410Z,91.00
2022-08-11T04:53:18.395Z,86.00
2022-08-11T04:54:18.433Z,89.00
2022-08-11T04:55:18.375Z,97.00
2022-08-11T04:56:18.365Z,94.00
2022-08-11T04:57:18.353Z,81.00
2022-08-11T04:58:18.346Z,73.00
2022-08-11T04:59:18.335Z,90.00
2022-08-11T05:00:18.356Z,99.00
2022-08-11T05:01:18.334Z,100.00
2022-08-11T05:02:18.355Z,94.00
2022-08-11T05:03:18.286Z,87.00
2022-08-11T05:04:18.286Z,103.00
2022-08-11T05:05:18.266Z,113.00
2022-08-11T05:06:18.297Z,110.00
2022-08-11T05:07:18.252Z,130.00
2022-08-11T05:08:21.887Z,154.00
2022-08-11T05:09:19.230Z,130.00
2022-08-11T05:10:18.220Z,130.00
2022-08-11T05:11:18.207Z,135.00
2022-08-11T05:12:18.230Z,150.00
2022-08-11T05:13:18.189Z,175.00
2022-08-11T05:14:18.181Z,187.00
2022-08-11T05:15:18.170Z,156.00
2022-08-11T05:16:18.163Z,184.00
2022-08-11T05:17:18.141Z,194.00
2022-08-11T05:18:18.177Z,218.00
2022-08-11T05:19:18.123Z,239.00
2022-08-11T05:20:18.123Z,264.00
2022-08-11T05:21:18.103Z,260.00
2022-08-11T05:22:18.095Z,214.00
2022-08-11T05:23:18.085Z,200.00
2022-08-11T05:24:18.111Z,206.00
2022-08-11T05:26:25.523Z,189.00
2022-08-11T05:26:46.568Z,165.00
2022-08-11T05:27:19.044Z,175.00
2022-08-11T05:28:18.034Z,197.00
2022-08-11T05:29:20.006Z,183.00
2022-08-11T05:30:18.047Z,197.00
2022-08-11T05:31:17.999Z,242.00
2022-08-11T05:32:17.997Z,247.00
2022-08-11T05:33:17.984Z,277.00
2022-08-11T05:34:17.969Z,327.00
2022-08-11T05:36:00.240Z,302.00
2022-08-11T05:36:18.988Z,268.00
2022-08-11T05:37:26.861Z,213.00
2022-08-11T05:38:18.929Z,202.00
2022-08-11T05:39:17.961Z,228.00
2022-08-11T05:40:17.909Z,319.00
2022-08-11T05:41:17.899Z,971.00
2022-08-11T05:42:29.438Z,288.00
2022-08-11T05:43:18.871Z,799.00
2022-08-11T05:44:20.867Z,249.00
2022-08-11T05:45:17.852Z,252.00
2022-08-11T05:46:17.852Z,249.00
2022-08-11T05:47:17.842Z,261.00
2022-08-11T05:48:17.865Z,333.00
2022-08-11T05:49:17.813Z,182.00
2022-08-11T05:50:17.803Z,190.00
2022-08-11T05:51:21.107Z,220.00
2022-08-11T05:52:18.783Z,397.00
2022-08-11T05:53:17.773Z,164.00
2022-08-11T05:54:28.694Z,191.00
2022-08-11T05:55:18.754Z,232.00
2022-08-11T05:56:17.756Z,790.00
2022-08-11T05:57:48.589Z,2248.00
2022-08-11T05:58:18.727Z,422.00
2022-08-11T05:59:17.716Z,242.00
2022-08-11T06:00:17.737Z,450.00
2022-08-11T06:01:17.727Z,997.00
2022-08-11T06:02:17.690Z,417.00
2022-08-11T06:03:17.688Z,524.00
2022-08-11T06:04:17.671Z,1567.00
2022-08-11T06:05:19.418Z,204.00
2022-08-11T06:06:17.682Z,165.00
2022-08-11T06:07:17.643Z,817.00
2022-08-11T06:08:17.621Z,807.00
2022-08-11T06:09:17.611Z,790.00
2022-08-11T06:10:17.601Z,801.00
2022-08-11T06:11:17.591Z,799.00
2022-08-11T06:12:17.622Z,788.00
2022-08-11T06:13:17.577Z,782.00
2022-08-11T06:14:17.562Z,776.00
2022-08-11T06:15:17.543Z,762.00
2022-08-11T06:16:17.543Z,751.00
2022-08-11T06:17:17.534Z,739.00
2022-08-11T06:18:17.555Z,708.00
2022-08-11T06:19:17.503Z,684.00
2022-08-11T06:20:17.496Z,682.00
2022-08-11T06:21:17.484Z,675.00
2022-08-11T06:22:17.477Z,673.00
2022-08-11T06:23:17.465Z,677.00
2022-08-11T06:24:17.498Z,680.00
2022-08-11T06:25:17.439Z,684.00
2022-08-11T06:26:17.437Z,691.00
2022-08-11T06:27:17.429Z,693.00
2022-08-11T06:28:20.784Z,695.00
2022-08-11T06:29:17.398Z,694.00
2022-08-11T06:30:17.419Z,696.00
2022-08-11T06:31:17.379Z,701.00
2022-08-11T06:32:17.369Z,704.00
2022-08-11T06:33:17.358Z,707.00
2022-08-11T06:34:27.132Z,713.00
2022-08-11T06:35:18.369Z,719.00
2022-08-11T06:36:17.330Z,720.00
2022-08-11T06:37:17.311Z,723.00
2022-08-11T06:38:17.311Z,724.00
2022-08-11T06:39:17.322Z,728.00
2022-08-11T06:40:17.284Z,735.00
2022-08-11T06:41:17.312Z,737.00
2022-08-11T06:42:17.266Z,740.00
2022-08-11T06:43:17.253Z,747.00
2022-08-11T06:44:17.291Z,752.00
2022-08-11T06:45:17.233Z,753.00
2022-08-11T06:46:28.445Z,758.00
2022-08-11T06:47:18.254Z,763.00
2022-08-11T06:48:17.206Z,767.00
2022-08-11T06:49:17.195Z,772.00
2022-08-11T06:50:17.184Z,779.00
2022-08-11T06:51:17.174Z,787.00
2022-08-11T06:52:34.547Z,792.00
2022-08-11T06:53:18.188Z,800.00
2022-08-11T06:54:17.137Z,807.00
2022-08-11T06:55:58.097Z,813.00
2022-08-11T06:56:18.117Z,820.00
2022-08-11T06:57:32.385Z,831.00
2022-08-11T06:58:18.158Z,836.00
2022-08-11T06:59:17.142Z,844.00
2022-08-11T07:00:17.087Z,853.00
2022-08-11T07:01:17.116Z,861.00
2022-08-11T07:02:17.060Z,869.00
2022-08-11T07:03:17.052Z,878.00
2022-08-11T07:04:17.042Z,889.00
2022-08-11T07:05:17.436Z,897.00
2022-08-11T07:06:17.022Z,903.00
2022-08-11T07:07:17.013Z,912.00
2022-08-11T07:08:34.157Z,920.00
2022-08-11T07:09:17.995Z,926.00
2022-08-11T07:10:16.983Z,933.00
2022-08-11T07:11:16.997Z,940.00
2022-08-11T07:12:16.965Z,947.00
2022-08-11T07:13:44.919Z,954.00
2022-08-11T07:14:17.948Z,960.00
2022-08-11T07:15:16.917Z,964.00
2022-08-11T07:16:16.914Z,971.00
2022-08-11T07:17:16.936Z,980.00
2022-08-11T07:18:16.898Z,990.00
2022-08-11T07:19:16.877Z,996.00
2022-08-11T07:20:16.877Z,1005.00
2022-08-11T07:22:00.393Z,1010.00
2022-08-11T07:22:17.888Z,1014.00
2022-08-11T07:23:16.839Z,1022.00
2022-08-11T07:24:16.830Z,1029.00
2022-08-11T07:25:16.827Z,1038.00
2022-08-11T07:26:16.809Z,1046.00
2022-08-11T07:27:16.801Z,1054.00
2022-08-11T07:28:16.821Z,1062.00
2022-08-11T07:29:16.772Z,1068.00
2022-08-11T07:30:16.770Z,1073.00
2022-08-11T07:31:16.753Z,1082.00
2022-08-11T07:32:16.743Z,1092.00
2022-08-11T07:34:05.245Z,1097.00
2022-08-11T07:34:18.377Z,1104.00
2022-08-11T07:35:16.723Z,1108.00
2022-08-11T07:36:16.704Z,1115.00
2022-08-11T07:37:16.697Z,1122.00
2022-08-11T07:38:22.080Z,1128.00
2022-08-11T07:39:17.746Z,1136.00
2022-08-11T07:40:16.704Z,1141.00
2022-08-11T07:41:16.656Z,1145.00
2022-08-11T07:42:16.647Z,1150.00
2022-08-11T07:43:16.637Z,1155.00
2022-08-11T07:44:16.629Z,1160.00
2022-08-11T07:45:16.619Z,1168.00
2022-08-11T07:46:16.651Z,1175.00
2022-08-11T07:47:16.600Z,1182.00
2022-08-11T07:48:16.581Z,1188.00
2022-08-11T07:49:16.582Z,1194.00
2022-08-11T07:50:16.561Z,1201.00
2022-08-11T07:51:16.552Z,1206.00
2022-08-11T07:52:16.570Z,1211.00
2022-08-11T07:53:16.529Z,1215.00
2022-08-11T07:54:17.460Z,1223.00
2022-08-11T07:55:16.511Z,1228.00
2022-08-11T07:56:17.387Z,1232.00
2022-08-11T07:58:13.980Z,1239.00
2022-08-11T07:58:20.212Z,1243.00
2022-08-11T07:59:16.474Z,1250.00
2022-08-11T08:00:16.458Z,1254.00
2022-08-11T08:01:21.562Z,1259.00
2022-08-11T08:02:17.475Z,1263.00
2022-08-11T08:03:16.478Z,1269.00
2022-08-11T08:04:16.411Z,1275.00
2022-08-11T08:05:16.410Z,1279.00
2022-08-11T08:06:22.281Z,1283.00
2022-08-11T08:07:17.389Z,1287.00
2022-08-11T08:08:17.363Z,1291.00
2022-08-11T08:09:16.398Z,1297.00
2022-08-11T08:10:16.347Z,1302.00
2022-08-11T08:11:16.350Z,1306.00
2022-08-11T08:12:16.350Z,1310.00
2022-08-11T08:13:16.322Z,1316.00
2022-08-11T08:14:16.314Z,1318.00
2022-08-11T08:15:16.346Z,1322.00
2022-08-11T08:16:16.294Z,1326.00
2022-08-11T08:17:16.297Z,1330.00
2022-08-11T08:18:25.954Z,1337.00
2022-08-11T08:19:17.254Z,1344.00
2022-08-11T08:20:16.255Z,1346.00
2022-08-11T08:21:16.276Z,1351.00
2022-08-11T08:22:37.966Z,1355.00
2022-08-11T08:23:17.225Z,1361.00
2022-08-11T08:24:16.218Z,1364.00
2022-08-11T08:25:16.206Z,1367.00
2022-08-11T08:26:16.999Z,1368.00
2022-08-11T08:27:16.219Z,1373.00
2022-08-11T08:28:16.180Z,1378.00
2022-08-11T08:29:16.160Z,1381.00
2022-08-11T08:30:16.149Z,1384.00
2022-08-11T08:31:16.144Z,1387.00
2022-08-11T08:32:16.130Z,1391.00
2022-08-11T08:33:16.151Z,1396.00
2022-08-11T08:34:16.109Z,1399.00
2022-08-11T08:35:16.096Z,1402.00
2022-08-11T08:36:16.083Z,1407.00
2022-08-11T08:37:47.178Z,1413.00
2022-08-11T08:38:17.104Z,1416.00
2022-08-11T08:39:16.094Z,1420.00
2022-08-11T08:40:16.049Z,1423.00
2022-08-11T08:41:16.620Z,1424.00
2022-08-11T08:42:16.025Z,1429.00
2022-08-11T08:43:16.015Z,1426.00
2022-08-11T08:44:37.125Z,1420.00
2022-08-11T08:45:16.995Z,1424.00
2022-08-11T08:46:15.977Z,1426.00
2022-08-11T08:47:16.874Z,1432.00
2022-08-11T08:48:16.965Z,1431.00
2022-08-11T08:49:15.959Z,1437.00
2022-08-11T08:50:16.690Z,1455.00
2022-08-11T08:51:16.756Z,1459.00
2022-08-11T08:52:29.473Z,1458.00
2022-08-11T08:53:16.920Z,1459.00
2022-08-11T08:54:15.901Z,1463.00
2022-08-11T08:55:15.891Z,1465.00
2022-08-11T08:56:15.922Z,1468.00
2022-08-11T08:57:15.904Z,1470.00
2022-08-11T08:58:15.864Z,1462.00
2022-08-11T08:59:15.862Z,1447.00
2022-08-11T09:00:20.755Z,1447.00
2022-08-11T09:01:16.947Z,1472.00
2022-08-11T09:02:15.824Z,1489.00
2022-08-11T09:03:39.887Z,1492.00
2022-08-11T09:04:20.775Z,1496.00
2022-08-11T09:05:15.807Z,1497.00
2022-08-11T09:06:15.775Z,1503.00
2022-08-11T09:07:15.819Z,1505.00
2022-08-11T09:08:15.756Z,1504.00
2022-08-11T09:09:15.758Z,1505.00
2022-08-11T09:10:15.738Z,1494.00
2022-08-11T09:11:15.744Z,1469.00
2022-08-11T09:12:15.718Z,1460.00
2022-08-11T09:13:15.749Z,1462.00
2022-08-11T09:14:15.707Z,1479.00
2022-08-11T09:15:19.622Z,1506.00
2022-08-11T09:16:15.681Z,1526.00
2022-08-11T09:17:15.674Z,1526.00
2022-08-11T09:18:15.653Z,1530.00
2022-08-11T09:19:15.684Z,1531.00
2022-08-11T09:20:15.635Z,1528.00
2022-08-11T09:21:15.625Z,1517.00
2022-08-11T09:22:16.615Z,1516.00
2022-08-11T09:24:25.024Z,1530.00
2022-08-11T09:25:16.595Z,1528.00
2022-08-11T09:26:15.577Z,1540.00
2022-08-11T09:27:15.566Z,1504.00
2022-08-11T09:28:15.558Z,1478.00
2022-08-11T09:29:15.549Z,1544.00
2022-08-11T09:30:15.579Z,1547.00
2022-08-11T09:31:15.531Z,1547.00
2022-08-11T09:32:15.520Z,1554.00
2022-08-11T09:33:15.520Z,1556.00
2022-08-11T09:34:15.499Z,1558.00
2022-08-11T09:35:15.490Z,1563.00
2022-08-11T09:36:15.511Z,1565.00
2022-08-11T09:37:54.760Z,1569.00
2022-08-11T09:38:16.452Z,1572.00
2022-08-11T09:39:15.485Z,1577.00
2022-08-11T09:40:15.443Z,1583.00
2022-08-11T09:41:15.424Z,1590.00
2022-08-11T09:42:16.432Z,1587.00
2022-08-11T09:43:15.414Z,1538.00
2022-08-11T09:44:15.395Z,1482.00
2022-08-11T09:45:15.385Z,1418.00
2022-08-11T09:46:15.377Z,1351.00
2022-08-11T09:47:15.366Z,1432.00
2022-08-11T09:48:15.394Z,1476.00
2022-08-11T09:49:15.352Z,1510.00
2022-08-11T09:50:15.338Z,1605.00
2022-08-11T09:51:15.331Z,1612.00
2022-08-11T09:52:15.329Z,1610.00
2022-08-11T09:53:36.681Z,1574.00
2022-08-11T09:54:16.332Z,1510.00
2022-08-11T09:55:15.292Z,1518.00
2022-08-11T09:56:15.272Z,1558.00
2022-08-11T09:57:15.271Z,1590.00
2022-08-11T09:58:35.226Z,1610.00
2022-08-11T09:59:16.244Z,1609.00
2022-08-11T10:00:15.488Z,1627.00
2022-08-11T10:01:15.292Z,1627.00
2022-08-11T10:02:15.225Z,1606.00
2022-08-11T10:03:15.205Z,1555.00
2022-08-11T10:04:15.194Z,1526.00
2022-08-11T10:05:15.197Z,1518.00
2022-08-11T10:06:15.206Z,1479.00
2022-08-11T10:07:15.167Z,1459.00
2022-08-11T10:08:15.157Z,1531.00
2022-08-11T10:09:15.148Z,1550.00
2022-08-11T10:10:15.137Z,1541.00
2022-08-11T10:11:15.128Z,1421.00
2022-08-11T10:12:15.163Z,1258.00
2022-08-11T10:14:31.785Z,1244.00
2022-08-11T10:14:33.178Z,1185.00
2022-08-11T10:15:16.079Z,1178.00
2022-08-11T10:16:16.824Z,1232.00
2022-08-11T10:17:15.414Z,1386.00
2022-08-11T10:18:15.302Z,1473.00
2022-08-11T10:19:15.099Z,1507.00
2022-08-11T10:20:15.092Z,1505.00
2022-08-11T10:21:15.066Z,1596.00
2022-08-11T10:22:15.083Z,1629.00
2022-08-11T10:23:15.056Z,1632.00
2022-08-11T10:24:15.096Z,1625.00
2022-08-11T10:25:15.177Z,1614.00
2022-08-11T10:26:16.006Z,1609.00
2022-08-11T10:27:15.056Z,1606.00
2022-08-11T10:28:30.710Z,1608.00
2022-08-11T10:29:16.127Z,1611.00
2022-08-11T10:30:15.017Z,1619.00
2022-08-11T10:31:14.975Z,1591.00
2022-08-11T10:32:15.009Z,1557.00
2022-08-11T10:33:36.372Z,1577.00
2022-08-11T10:34:15.949Z,1596.00
2022-08-11T10:35:14.979Z,1628.00
2022-08-11T10:36:16.348Z,1602.00
2022-08-11T10:37:15.354Z,1511.00
2022-08-11T10:38:14.958Z,1493.00
2022-08-11T10:39:14.955Z,1596.00
2022-08-11T10:40:15.001Z,1625.00
2022-08-11T10:41:14.931Z,1632.00
2022-08-11T10:42:29.995Z,1615.00
2022-08-11T10:43:17.681Z,1539.00
2022-08-11T10:44:15.853Z,1461.00
2022-08-11T10:45:14.824Z,1516.00
2022-08-11T10:46:14.886Z,1608.00
2022-08-11T10:47:14.856Z,1614.00
2022-08-11T10:48:15.672Z,1603.00
2022-08-11T10:49:14.808Z,1596.00
2022-08-11T10:50:14.818Z,1623.00
2022-08-11T10:51:14.787Z,1608.00
2022-08-11T10:52:14.788Z,1549.00
2022-08-11T10:53:14.820Z,1532.00
2022-08-11T10:54:14.760Z,1558.00
2022-08-11T10:55:14.769Z,1561.00
2022-08-11T10:56:14.722Z,1558.00
2022-08-11T10:57:14.749Z,1539.00
2022-08-11T10:58:14.701Z,1516.00
2022-08-11T10:59:14.761Z,1601.00
2022-08-11T11:00:14.685Z,1546.00
2022-08-11T11:01:14.885Z,1471.00
2022-08-11T11:02:14.654Z,1493.00
2022-08-11T11:03:22.710Z,1513.00
2022-08-11T11:04:15.679Z,1527.00
2022-08-11T11:05:14.643Z,1536.00
2022-08-11T11:06:28.870Z,1601.00
2022-08-11T11:07:15.636Z,1608.00
2022-08-11T11:08:14.627Z,1612.00
2022-08-11T11:09:14.616Z,1605.00
2022-08-11T11:10:14.617Z,1601.00
2022-08-11T11:11:18.234Z,1593.00
2022-08-11T11:12:14.609Z,1572.00
2022-08-11T11:13:14.579Z,1565.00
2022-08-11T11:14:14.549Z,1568.00
2022-08-11T11:15:16.132Z,1581.00
2022-08-11T11:16:14.612Z,1571.00
2022-08-11T11:17:14.535Z,1554.00
2022-08-11T11:18:14.532Z,1499.00
2022-08-11T11:19:14.527Z,1400.00
2022-08-11T11:20:36.224Z,1397.00
2022-08-11T11:21:15.536Z,1480.00
2022-08-11T11:22:14.495Z,1535.00
2022-08-11T11:23:14.473Z,1573.00
2022-08-11T11:24:14.435Z,1559.00
2022-08-11T11:25:14.463Z,1476.00
2022-08-11T11:26:14.441Z,1341.00
2022-08-11T11:27:14.489Z,1298.00
2022-08-11T11:28:14.427Z,1332.00
2022-08-11T11:29:20.422Z,1453.00
2022-08-11T11:30:14.403Z,1477.00
2022-08-11T11:31:15.845Z,1452.00
2022-08-11T11:32:14.378Z,1399.00
2022-08-11T11:33:14.430Z,1288.00
2022-08-11T11:34:14.440Z,1214.00
2022-08-11T11:35:14.341Z,1205.00
2022-08-11T11:36:14.360Z,1219.00
2022-08-11T11:37:14.319Z,1312.00
2022-08-11T11:38:14.384Z,1339.00
2022-08-11T11:39:14.478Z,1332.00
2022-08-11T11:40:14.416Z,1373.00
2022-08-11T11:41:14.293Z,1412.00
2022-08-11T11:42:14.264Z,1409.00
2022-08-11T11:43:14.275Z,1388.00
2022-08-11T11:44:14.264Z,1426.00
2022-08-11T11:45:23.374Z,1473.00
2022-08-11T11:46:15.237Z,1434.00
2022-08-11T11:47:14.225Z,1391.00
2022-08-11T11:48:14.198Z,1387.00
2022-08-11T11:49:17.200Z,1364.00
2022-08-11T11:50:15.268Z,1293.00
2022-08-11T11:51:14.237Z,1273.00
2022-08-11T11:52:14.186Z,1331.00
2022-08-11T11:53:14.168Z,1295.00
2022-08-11T11:54:14.187Z,1283.00
2022-08-11T11:55:14.193Z,1321.00
2022-08-11T11:56:14.131Z,1431.00
2022-08-11T11:57:14.133Z,1462.00
2022-08-11T11:58:18.586Z,1450.00
2022-08-11T11:59:14.678Z,1448.00
2022-08-11T12:00:14.123Z,1453.00
2022-08-11T12:01:14.069Z,1441.00
2022-08-11T12:02:14.074Z,1430.00
2022-08-11T12:03:14.226Z,1430.00
2022-08-11T12:04:14.036Z,1427.00
2022-08-11T12:05:14.015Z,1410.00
2022-08-11T12:06:14.190Z,1401.00
2022-08-11T12:07:14.019Z,1398.00
2022-08-11T12:08:14.027Z,1399.00
2022-08-11T12:09:14.007Z,1401.00
2022-08-11T12:10:14.082Z,1402.00
2022-08-11T12:11:14.040Z,1396.00
2022-08-11T12:12:13.962Z,1389.00
2022-08-11T12:13:14.041Z,1387.00
2022-08-11T12:14:13.941Z,1388.00
2022-08-11T12:15:13.981Z,1393.00
2022-08-11T12:16:34.668Z,1406.00
2022-08-11T12:17:14.884Z,3341.00
2022-08-11T12:18:13.940Z,260.00
2022-08-11T12:19:14.013Z,1505.00
2022-08-11T12:20:30.914Z,1494.00
2022-08-11T12:21:14.959Z,1449.00
2022-08-11T12:22:13.905Z,1400.00
2022-08-11T12:23:14.683Z,2796.00
2022-08-11T12:24:13.835Z,1401.00
2022-08-11T12:25:13.878Z,1387.00
2022-08-11T12:26:26.994Z,1355.00
2022-08-11T12:27:17.689Z,1338.00
2022-08-11T12:28:13.889Z,1303.00
2022-08-11T12:29:13.784Z,3486.00
2022-08-11T12:30:13.818Z,1329.00
2022-08-11T12:31:13.792Z,1327.00
2022-08-11T12:32:13.785Z,1328.00
2022-08-11T12:33:13.780Z,1336.00
2022-08-11T12:34:14.761Z,1337.00
2022-08-11T12:35:13.742Z,1333.00